Time;durP1;ratioP1;P1;durP2;ratioP2;P2;SDS_P1;SDS_P2;PMS_P1;PMS_P2;Temp;Humidity;BMP_temperature;BMP_pressure;BME280_temperature;BME280_humidity;BME280_pressure;Samples;Min_cycle;Max_cycle;Signal;HPM_P1;HPM_P2
2023/10/13 00:01:34;;;;;;;7.80;2.97;;;;;;;11.74;100.00;101153.25;6094877;23;20478;-78
2023/10/13 00:04:02;;;;;;;6.47;3.22;;;;;;;11.77;100.00;101150.03;6119421;23;20017;-78
2023/10/13 00:06:45;;;;;;;6.65;2.47;;;;;;;11.77;100.00;101149.22;6123820;23;20031;-78
2023/10/13 00:09:37;;;;;;;7.90;3.20;;;;;;;11.77;100.00;101147.34;6124181;23;20477;-80
2023/10/13 00:12:23;;;;;;;7.55;3.05;;;;;;;11.79;100.00;101141.72;6124031;23;20127;-79
2023/10/13 00:14:50;;;;;;;6.28;2.22;;;;;;;11.84;100.00;101143.63;6118853;23;20358;-78
2023/10/13 00:17:20;;;;;;;9.05;2.60;;;;;;;11.83;100.00;101134.75;6070842;23;20084;-77
2023/10/13 00:19:46;;;;;;;8.05;2.45;;;;;;;11.86;100.00;101142.28;6120477;23;20064;-78
2023/10/13 00:22:19;;;;;;;8.30;3.15;;;;;;;11.88;100.00;101142.81;6070673;23;20014;-78
2023/10/13 00:24:45;;;;;;;8.80;3.05;;;;;;;11.88;100.00;101133.97;6094898;23;20033;-78
2023/10/13 00:27:36;;;;;;;7.35;3.22;;;;;;;11.90;100.00;101142.53;6094309;23;20448;-78
2023/10/13 00:30:52;;;;;;;9.52;3.25;;;;;;;11.92;100.00;101135.03;6117098;23;20056;-77
2023/10/13 00:32:56;;;;;;;7.82;2.67;;;;;;;11.92;100.00;101135.03;6071286;23;20024;-77
2023/10/13 00:35:37;;;;;;;7.57;2.97;;;;;;;11.90;100.00;101126.44;6120401;23;20052;-78
2023/10/13 00:38:12;;;;;;;9.10;3.80;;;;;;;11.92;100.00;101130.50;6092672;23;20010;-78
2023/10/13 00:44:03;;;;;;;8.75;3.30;;;;;;;11.95;100.00;101118.41;6094627;23;20017;-78
2023/10/13 00:45:57;;;;;;;10.32;3.80;;;;;;;11.96;100.00;101114.63;6107851;23;20017;-78
2023/10/13 00:48:29;;;;;;;9.27;3.35;;;;;;;11.98;100.00;101112.47;6071137;23;20101;-77
2023/10/13 00:51:06;;;;;;;13.88;3.90;;;;;;;11.97;100.00;101100.13;6095497;23;20018;-78
2023/10/13 00:53:37;;;;;;;9.07;3.83;;;;;;;11.97;100.00;101100.13;6072339;23;20052;-77
2023/10/13 00:56:07;;;;;;;8.68;3.63;;;;;;;11.99;100.00;101101.50;6095109;23;20024;-77
2023/10/13 00:58:35;;;;;;;11.68;4.18;;;;;;;12.00;100.00;101094.25;6097868;23;20018;-77
2023/10/13 01:01:17;;;;;;;11.32;4.28;;;;;;;12.01;100.00;101101.22;6095018;23;20021;-77
2023/10/13 01:03:49;;;;;;;11.63;3.58;;;;;;;12.02;100.00;101095.56;6095572;23;20112;-78
2023/10/13 01:06:16;;;;;;;13.48;3.60;;;;;;;12.05;100.00;101094.22;6071048;23;20025;-78
2023/10/13 01:08:50;;;;;;;10.68;3.65;;;;;;;12.06;100.00;101093.16;6072056;23;20013;-77
2023/10/13 01:11:19;;;;;;;14.50;4.13;;;;;;;12.06;100.00;101095.84;6118410;23;20072;-78
2023/10/13 01:13:50;;;;;;;12.02;3.78;;;;;;;12.09;100.00;101083.75;6095936;23;20021;-78
2023/10/13 01:16:26;;;;;;;9.63;3.80;;;;;;;12.09;100.00;101076.50;6048129;23;20022;-77
2023/10/13 01:18:59;;;;;;;12.10;4.72;;;;;;;12.11;100.00;101074.34;6120311;23;20009;-76
2023/10/13 01:21:27;;;;;;;14.75;4.30;;;;;;;12.11;100.00;101068.97;6119791;23;20025;-78
2023/10/13 01:23:53;;;;;;;8.52;4.03;;;;;;;12.11;100.00;101068.16;6071758;23;20028;-76
2023/10/13 01:26:26;;;;;;;14.20;4.30;;;;;;;12.12;100.00;101065.22;6120189;23;20427;-77
2023/10/13 01:28:54;;;;;;;;;;;;;;;12.15;100.00;101066.56;6072031;23;20014;-78
2023/10/13 01:31:29;;;;;;;9.88;4.50;;;;;;;12.15;100.00;101053.94;6094321;23;19936;-77
2023/10/13 01:33:58;;;;;;;12.30;4.68;;;;;;;12.15;100.00;101048.56;6071612;23;20029;-78
2023/10/13 01:36:28;;;;;;;10.70;4.28;;;;;;;12.14;100.00;101041.59;6096596;23;20018;-78
2023/10/13 01:38:54;;;;;;;12.50;4.20;;;;;;;12.15;100.00;101051.25;6071334;23;20013;-77
2023/10/13 01:41:21;;;;;;;14.15;5.50;;;;;;;12.16;100.00;101044.81;6094215;23;20014;-76
2023/10/13 01:43:48;;;;;;;9.73;4.88;;;;;;;12.17;100.00;101054.47;6095625;23;20092;-78
2023/10/13 01:46:15;;;;;;;11.70;4.63;;;;;;;12.18;100.00;101045.31;6070802;23;20005;-76
2023/10/13 01:48:43;;;;;;;15.30;5.22;;;;;;;12.19;100.00;101033.53;6120900;23;20009;-76
2023/10/13 01:51:12;;;;;;;9.63;4.95;;;;;;;12.18;100.00;101031.91;6118988;23;20021;-80
2023/10/13 01:53:41;;;;;;;16.83;6.22;;;;;;;12.22;100.00;101027.59;6096000;23;20013;-77
2023/10/13 01:56:11;;;;;;;15.90;6.40;;;;;;;12.23;100.00;101013.09;6070849;23;20018;-78
2023/10/13 01:58:42;;;;;;;16.40;5.03;;;;;;;12.26;100.00;101001.81;6072423;23;20707;-77
2023/10/13 02:01:11;;;;;;;12.10;5.20;;;;;;;12.26;100.00;101007.19;6094077;23;20514;-77
2023/10/13 02:03:49;;;;;;;12.43;5.88;;;;;;;12.26;100.00;100996.47;6067171;23;20021;-77
2023/10/13 02:06:23;;;;;;;14.48;5.53;;;;;;;12.29;100.00;100995.09;6069430;23;20605;-78
2023/10/13 02:08:57;;;;;;;14.60;5.22;;;;;;;12.28;100.00;100994.28;6119975;23;20005;-77
2023/10/13 02:11:22;;;;;;;13.38;5.85;;;;;;;12.29;100.00;100990.53;6093991;23;20017;-78
2023/10/13 02:13:53;;;;;;;14.60;5.60;;;;;;;12.33;100.00;100989.97;6121642;23;20013;-77
2023/10/13 02:16:22;;;;;;;13.57;6.28;;;;;;;12.35;100.00;100982.47;6074631;23;20478;-77
2023/10/13 02:18:51;;;;;;;12.55;6.10;;;;;;;12.36;100.00;100984.06;6123788;23;20040;-77
2023/10/13 02:21:17;;;;;;;16.88;6.45;;;;;;;12.38;100.00;100971.16;6121986;23;20064;-76
2023/10/13 02:23:59;;;;;;;16.15;7.10;;;;;;;12.38;100.00;100966.56;6099743;23;20013;-76
2023/10/13 02:26:31;;;;;;;19.17;8.10;;;;;;;12.41;100.00;100957.97;6098167;23;20025;-75
2023/10/13 02:28:58;;;;;;;18.02;7.57;;;;;;;12.43;100.00;100960.38;6098072;23;20024;-78
2023/10/13 02:31:27;;;;;;;20.05;7.07;;;;;;;12.43;100.00;100963.06;6097484;23;20373;-76
2023/10/13 02:33:53;;;;;;;22.38;7.88;;;;;;;12.45;100.00;100960.91;6098220;23;20025;-76
2023/10/13 02:36:36;;;;;;;19.15;8.02;;;;;;;12.47;100.00;100956.09;6097695;23;20013;-78
2023/10/13 02:39:08;;;;;;;19.55;9.00;;;;;;;12.49;100.00;100948.53;6098997;23;20006;-76
2023/10/13 02:41:38;;;;;;;;;;;;;;;12.51;100.00;100944.50;6098365;23;20751;-79
2023/10/13 02:44:07;;;;;;;18.30;8.60;;;;;;;12.53;100.00;100946.88;6121334;23;20354;-78
2023/10/13 02:46:39;;;;;;;20.67;7.90;;;;;;;12.54;100.00;100937.78;6122206;23;20125;-80
2023/10/13 02:49:11;;;;;;;20.40;8.55;;;;;;;12.55;100.00;100934.81;6097936;23;20055;-79
2023/10/13 02:51:40;;;;;;;18.92;8.38;;;;;;;12.59;100.00;100948.47;6098270;23;20551;-78
2023/10/13 02:54:18;;;;;;;20.90;8.52;;;;;;;12.60;100.00;100930.47;6074265;23;20502;-78
2023/10/13 02:57:17;;;;;;;18.38;8.52;;;;;;;12.60;100.00;100942.03;6074801;23;20017;-79
2023/10/13 02:59:40;;;;;;;24.10;10.07;;;;;;;12.62;100.00;100934.50;6119058;23;20026;-78
2023/10/13 03:02:17;;;;;;;23.58;10.43;;;;;;;12.63;100.00;100925.34;6096698;23;20022;-78
2023/10/13 03:04:45;;;;;;;23.15;9.23;;;;;;;12.65;100.00;100923.19;6149464;23;20064;-78
2023/10/13 03:07:15;;;;;;;33.95;10.38;;;;;;;12.65;100.00;100920.50;6073413;23;20028;-79
2023/10/13 03:09:50;;;;;;;26.35;9.27;;;;;;;12.66;100.00;100923.97;6098761;23;20010;-80
2023/10/13 03:12:19;;;;;;;24.73;10.93;;;;;;;12.65;100.00;100907.06;6097306;23;20471;-79
2023/10/13 03:14:48;;;;;;;23.15;9.63;;;;;;;12.67;100.00;100907.59;6113277;23;20028;-81
2023/10/13 03:17:17;;;;;;;24.02;9.65;;;;;;;12.69;100.00;100912.69;6121506;23;20029;-79
2023/10/13 03:19:51;;;;;;;23.80;9.15;;;;;;;12.69;100.00;100902.75;6074788;23;20092;-80
2023/10/13 03:22:18;;;;;;;24.02;10.20;;;;;;;12.71;100.00;100899.78;6121617;23;20025;-80
2023/10/13 03:24:47;;;;;;;24.27;10.55;;;;;;;12.72;100.00;100894.09;6097136;23;20092;-80
2023/10/13 03:27:17;;;;;;;25.25;10.43;;;;;;;12.73;100.00;100893.03;6146589;23;20009;-81
2023/10/13 03:29:46;;;;;;;25.65;10.00;;;;;;;12.73;100.00;100893.03;6097303;23;20503;-81
2023/10/13 03:32:13;;;;;;;21.70;8.80;;;;;;;12.75;100.00;100884.69;6146691;23;20455;-78
2023/10/13 03:34:54;;;;;;;23.88;10.07;;;;;;;12.77;100.00;100883.31;6098402;23;20092;-79
2023/10/13 03:37:37;;;;;;;18.88;9.48;;;;;;;12.79;100.00;100883.84;6081780;23;20022;-80
2023/10/13 03:45:26;;;;;;;16.83;8.93;;;;;;;12.85;100.00;100873.84;6147564;23;20017;-79
2023/10/13 03:47:52;;;;;;;24.40;9.60;;;;;;;12.84;100.00;100870.38;6122233;23;20013;-79
2023/10/13 03:50:29;;;;;;;;;;;;;;;12.89;100.00;100866.06;6095738;23;20026;-79
2023/10/13 03:52:59;;;;;;;24.25;10.05;;;;;;;12.88;100.00;100856.38;6097361;23;19916;-80
2023/10/13 03:55:29;;;;;;;26.83;10.60;;;;;;;12.89;100.00;100858.00;6099662;23;20021;-79
2023/10/13 03:58:00;;;;;;;26.08;10.93;;;;;;;12.91;100.00;100851.22;6099549;23;20041;-79
2023/10/13 04:00:30;;;;;;;25.98;10.63;;;;;;;12.94;100.00;100856.06;6122991;23;20021;-79
2023/10/13 04:08:48;;;;;;;28.20;10.60;;;;;;;13.02;100.00;100841.19;6034956;23;19948;-79
2023/10/13 04:16:54;;;;;;;23.05;10.32;;;;;;;13.08;100.00;100840.06;6121770;23;20021;-79
2023/10/13 04:19:23;;;;;;;29.48;12.23;;;;;;;13.10;100.00;100832.50;6096279;23;20006;-79
2023/10/13 04:21:59;;;;;;;31.42;12.70;;;;;;;13.11;100.00;100832.22;6071397;23;20044;-80
2023/10/13 04:30:10;;;;;;;29.63;12.10;;;;;;;13.21;100.00;100825.16;6148139;23;20005;-81
2023/10/13 04:32:46;;;;;;;32.38;12.63;;;;;;;13.24;100.00;100828.09;6071872;23;20060;-79
2023/10/13 04:38:01;;;;;;;31.58;12.35;;;;;;;13.31;100.00;100812.41;6148028;23;20415;-81
2023/10/13 04:40:35;;;;;;;32.45;13.30;;;;;;;13.34;100.00;100801.09;6095431;23;20072;-81
2023/10/13 04:43:16;;;;;;;32.17;13.10;;;;;;;13.37;100.00;100795.13;6073191;23;20363;-79
2023/10/13 04:45:53;;;;;;;33.85;13.40;;;;;;;13.42;100.00;100788.13;6096931;23;20009;-79
2023/10/13 04:50:59;;;;;;;32.85;12.80;;;;;;;13.49;100.00;100783.97;6096138;23;20030;-79
2023/10/13 04:53:29;;;;;;;34.95;14.38;;;;;;;13.51;100.00;100764.84;6119973;23;20009;-79
2023/10/13 05:51:33;;;;;;;74.72;27.08;;;;;;;14.35;100.00;100694.94;6029310;23;20055;-77
2023/10/13 06:30:06;;;;;;;59.67;27.73;;;;;;;14.88;100.00;100668.41;6005082;23;20015;-76
2023/10/13 06:32:33;;;;;;;61.55;26.90;;;;;;;14.90;100.00;100665.41;5981228;23;20294;-75
2023/10/13 06:35:05;;;;;;;58.65;27.10;;;;;;;14.93;100.00;100664.81;6004744;23;20331;-76
2023/10/13 06:37:32;;;;;;;53.53;28.52;;;;;;;14.95;100.00;100665.28;6004154;23;20109;-75
2023/10/13 06:40:22;;;;;;;58.35;27.60;;;;;;;14.98;100.00;100664.72;5980843;23;20030;-77
2023/10/13 06:42:48;;;;;;;57.25;28.40;;;;;;;15.00;100.00;100663.31;6030737;23;20011;-75
2023/10/13 06:45:16;;;;;;;56.55;28.67;;;;;;;15.03;100.00;100667.28;6026368;23;20011;-76
2023/10/13 06:47:43;;;;;;;55.50;27.80;;;;;;;15.05;100.00;100661.63;6028702;23;20400;-76
2023/10/13 06:50:15;;;;;;;56.08;29.25;;;;;;;15.04;100.00;100658.13;6004604;23;20019;-75
2023/10/13 06:52:49;;;;;;;53.33;28.85;;;;;;;15.07;100.00;100651.31;6005228;23;20073;-76
2023/10/13 06:55:17;;;;;;;51.00;27.00;;;;;;;15.09;100.00;100646.41;6003218;23;20047;-74
2023/10/13 06:57:43;;;;;;;56.25;29.75;;;;;;;15.10;100.00;100643.41;6004446;23;20513;-77
2023/10/13 07:00:19;;;;;;;51.80;28.98;;;;;;;15.13;100.00;100639.31;6027842;23;20041;-77
2023/10/13 07:02:46;;;;;;;58.83;29.27;;;;;;;15.15;100.00;100639.81;6032150;23;20027;-75
2023/10/13 07:05:13;;;;;;;52.88;28.20;;;;;;;15.18;100.00;100637.31;6005282;23;20029;-76
2023/10/13 07:07:40;;;;;;;53.85;28.25;;;;;;;15.18;100.00;100631.13;6031613;23;20015;-76
2023/10/13 07:10:09;;;;;;;53.17;28.90;;;;;;;15.19;100.00;100622.72;6029079;23;20114;-76
2023/10/13 07:12:35;;;;;;;59.38;29.20;;;;;;;15.21;100.00;100622.41;6029547;23;20023;-76
2023/10/13 07:15:05;;;;;;;57.22;30.20;;;;;;;15.21;100.00;100617.81;6032045;23;20506;-76
2023/10/13 07:17:37;;;;;;;49.60;27.42;;;;;;;15.24;100.00;100619.09;5960168;23;20030;-76
2023/10/13 07:23:02;;;;;;;54.40;28.08;;;;;;;15.27;100.00;100613.91;6007630;23;20023;-76
2023/10/13 07:25:32;;;;;;;54.65;29.90;;;;;;;15.30;100.00;100617.88;6005254;23;20023;-76
2023/10/13 07:28:04;;;;;;;46.25;27.17;;;;;;;15.31;100.00;100608.72;5984086;23;20019;-76
2023/10/13 07:30:39;;;;;;;44.38;25.98;;;;;;;15.30;100.00;100607.88;6029235;23;20026;-76
2023/10/13 07:33:05;;;;;;;46.80;27.25;;;;;;;15.32;100.00;100599.53;6032121;23;20023;-76
2023/10/13 07:35:35;;;;;;;47.83;28.02;;;;;;;15.34;100.00;100588.41;6028025;23;20454;-76
2023/10/13 07:38:01;;;;;;;36.90;23.48;;;;;;;15.34;100.00;100580.31;6031787;23;20023;-76
2023/10/13 07:43:08;;;;;;;43.70;22.30;;;;;;;15.36;100.00;100568.09;6006566;23;19981;-77
2023/10/13 07:45:40;;;;;;;39.17;23.00;;;;;;;15.37;100.00;100555.41;6005641;23;20090;-77
2023/10/13 07:48:26;;;;;;;38.38;22.52;;;;;;;15.39;100.00;100555.94;6005348;23;20454;-77
2023/10/13 07:51:01;;;;;;;31.23;20.70;;;;;;;15.40;100.00;100541.31;6028996;23;20011;-75
2023/10/13 07:53:29;;;;;;;33.22;19.77;;;;;;;15.41;100.00;100529.41;6029802;23;20023;-76
2023/10/13 07:55:55;;;;;;;29.58;19.02;;;;;;;15.40;100.00;100525.94;6028861;23;20022;-77
2023/10/13 07:58:27;;;;;;;;;;;;;;;15.42;100.00;100520.22;6005674;23;20023;-77
2023/10/13 08:08:39;;;;;;;23.00;15.20;;;;;;;15.43;100.00;100505.63;6004391;23;20586;-76
2023/10/13 08:11:11;;;;;;;23.98;16.40;;;;;;;15.44;100.00;100493.72;6004181;23;20015;-75
2023/10/13 08:13:46;;;;;;;25.83;16.92;;;;;;;15.44;100.00;100483.72;6030862;23;20019;-75
2023/10/13 08:16:20;;;;;;;24.08;15.77;;;;;;;15.45;100.00;100479.13;6006291;23;20026;-75
2023/10/13 08:18:50;;;;;;;22.67;15.57;;;;;;;15.45;100.00;100479.94;6031040;23;20018;-75
2023/10/13 08:21:17;;;;;;;25.63;15.48;;;;;;;15.46;100.00;100476.13;6007936;23;20019;-75
2023/10/13 08:26:57;;;;;;;19.58;15.00;;;;;;;15.48;100.00;100457.72;6006558;23;20015;-76
2023/10/13 08:35:00;;;;;;;18.83;13.80;;;;;;;15.50;100.00;100444.69;5981298;23;20015;-76
2023/10/13 08:40:03;;;;;;;24.42;14.35;;;;;;;15.52;100.00;100452.50;6029027;23;20008;-76
2023/10/13 08:45:08;;;;;;;19.17;13.65;;;;;;;15.52;100.00;100463.31;6029357;23;20438;-76
2023/10/13 08:47:36;;;;;;;21.58;14.43;;;;;;;15.52;100.00;100457.91;5981075;23;20019;-76
2023/10/13 08:50:37;;;;;;;20.98;14.35;;;;;;;15.51;100.00;100457.13;6027308;23;20450;-77
2023/10/13 08:52:59;;;;;;;21.45;14.35;;;;;;;15.51;100.00;100462.50;6028948;23;20047;-75
2023/10/13 08:55:39;;;;;;;20.83;14.32;;;;;;;15.50;100.00;100463.59;5979587;23;20674;-76
2023/10/13 08:58:14;;;;;;;17.15;12.15;;;;;;;15.50;100.00;100458.19;6028272;23;20152;-77
2023/10/13 09:01:11;;;;;;;16.02;12.05;;;;;;;15.49;100.00;100458.50;5980299;23;20019;-78
2023/10/13 09:03:41;;;;;;;14.38;10.95;;;;;;;15.51;100.00;100462.50;6004578;23;20445;-76
2023/10/13 09:06:14;;;;;;;14.27;10.85;;;;;;;15.51;100.00;100462.50;6004210;23;20030;-73
2023/10/13 09:11:27;;;;;;;15.10;10.85;;;;;;;15.51;100.00;100449.03;6026461;23;20043;-73
2023/10/13 09:13:53;;;;;;;14.60;8.95;;;;;;;15.53;100.00;100457.59;6004531;23;20426;-74
2023/10/13 09:19:06;;;;;;;11.55;7.63;;;;;;;15.63;100.00;100453.84;6027387;23;19910;-74
2023/10/13 09:26:53;;;;;;;7.97;6.63;;;;;;;15.76;100.00;100452.16;6003719;23;20055;-74
2023/10/13 09:29:19;;;;;;;9.43;6.68;;;;;;;15.81;100.00;100443.94;6029991;23;20145;-75
2023/10/13 09:31:47;;;;;;;;;;;;;;;15.85;100.00;100444.91;5980577;23;20354;-73
2023/10/13 09:34:20;;;;;;;9.77;6.55;;;;;;;15.87;100.00;100436.50;6003818;23;19913;-75
2023/10/13 09:36:47;;;;;;;9.38;6.32;;;;;;;15.92;100.00;100445.25;6027962;23;20034;-75
2023/10/13 09:39:29;;;;;;;9.48;6.20;;;;;;;15.96;100.00;100434.63;6005341;23;20038;-76
2023/10/13 09:41:59;;;;;;;9.63;6.32;;;;;;;16.01;100.00;100443.38;6004590;23;20219;-76
2023/10/13 09:44:30;;;;;;;8.52;5.68;;;;;;;16.03;100.00;100432.25;6003172;23;20027;-74
2023/10/13 09:47:07;;;;;;;10.48;6.15;;;;;;;16.01;100.00;100427.19;6002841;23;20669;-74
2023/10/13 09:49:45;;;;;;;14.25;6.45;;;;;;;16.01;100.00;100419.06;6004020;23;20099;-73
2023/10/13 09:52:20;;;;;;;9.27;5.88;;;;;;;16.03;100.00;100413.34;6026791;23;20011;-73
2023/10/13 09:55:25;;;;;;;6.72;4.80;;;;;;;16.02;100.00;100412.56;6027331;23;20023;-73
2023/10/13 09:57:59;;;;;;;13.88;5.93;;;;;;;16.04;100.00;100418.44;6004990;23;20023;-73
2023/10/13 10:00:57;;;;;;;9.93;6.07;;;;;;;16.05;100.00;100406.53;5979402;23;20019;-74
2023/10/13 10:03:39;;;;;;;13.10;5.95;;;;;;;16.07;100.00;100407.00;6027298;23;20066;-74
2023/10/13 10:06:14;;;;;;;8.88;6.07;;;;;;;16.05;100.00;100401.13;6026263;23;20090;-74
2023/10/13 10:08:48;;;;;;;12.63;5.80;;;;;;;16.07;100.00;100379.22;6004032;23;20039;-74
2023/10/13 10:11:26;;;;;;;11.95;5.32;;;;;;;16.09;100.00;100374.28;6004472;23;20012;-74
2023/10/13 10:14:04;;;;;;;9.88;5.82;;;;;;;16.10;100.00;100375.88;6004280;23;20015;-73
2023/10/13 10:16:59;;;;;;;11.32;5.88;;;;;;;16.13;100.00;100375.25;6028528;23;20087;-74
2023/10/13 10:19:30;;;;;;;8.38;4.95;;;;;;;16.15;100.00;100361.41;6029979;23;20067;-74
2023/10/13 10:22:16;;;;;;;11.32;6.10;;;;;;;16.17;100.00;100367.28;6027588;23;20019;-74
2023/10/13 10:24:43;;;;;;;13.52;6.88;;;;;;;16.19;100.00;100346.97;6002935;23;20029;-75
2023/10/13 10:27:14;;;;;;;11.20;5.53;;;;;;;16.23;100.00;100342.50;6003438;23;20093;-74
2023/10/13 10:29:52;;;;;;;10.98;5.80;;;;;;;16.27;100.00;100342.69;6003536;23;20023;-75
2023/10/13 10:32:18;;;;;;;10.30;6.20;;;;;;;16.31;100.00;100335.50;6027475;23;20032;-72
2023/10/13 10:34:44;;;;;;;9.68;6.20;;;;;;;16.33;100.00;100338.72;6029708;23;20047;-75
2023/10/13 10:37:11;;;;;;;;;;;;;;;16.35;100.00;100336.47;6003691;23;20023;-74
2023/10/13 10:39:46;;;;;;;8.30;6.13;;;;;;;16.36;100.00;100329.97;6003137;23;20305;-74
2023/10/13 10:42:21;;;;;;;8.90;5.30;;;;;;;16.38;100.00;100325.03;6029259;23;20038;-73
2023/10/13 10:44:55;;;;;;;10.70;5.68;;;;;;;16.44;100.00;100329.16;6029531;23;20102;-75
2023/10/13 10:47:38;;;;;;;11.73;6.18;;;;;;;16.47;100.00;100322.34;6032136;23;20022;-74
2023/10/13 10:50:18;;;;;;;13.32;5.80;;;;;;;16.52;100.00;100300.53;6029975;23;20336;-72
2023/10/13 10:52:44;;;;;;;14.85;6.78;;;;;;;16.58;100.00;100291.94;6006094;23;20015;-75
2023/10/13 10:55:13;;;;;;;;;;;;;;;16.65;100.00;100294.94;6031607;23;20011;-76
2023/10/13 10:57:48;;;;;;;12.93;6.70;;;;;;;16.72;100.00;100288.28;6030152;23;19913;-76
2023/10/13 11:00:24;;;;;;;12.55;6.25;;;;;;;16.78;100.00;100281.59;6006226;23;20066;-75
2023/10/13 11:02:55;;;;;;;13.80;6.28;;;;;;;16.83;100.00;100279.53;6006859;23;20450;-75
2023/10/13 11:05:21;;;;;;;11.73;5.70;;;;;;;16.88;100.00;100283.97;6029857;23;20070;-75
2023/10/13 11:07:50;;;;;;;13.80;6.88;;;;;;;16.97;100.00;100267.72;6029348;23;20019;-75
2023/10/13 11:10:49;;;;;;;9.38;5.80;;;;;;;17.00;100.00;100270.56;6004976;23;20019;-76
2023/10/13 11:13:22;;;;;;;10.90;6.15;;;;;;;17.12;100.00;100270.66;6025479;23;20019;-74
2023/10/13 11:15:48;;;;;;;9.63;6.75;;;;;;;17.20;100.00;100271.75;6030579;23;20019;-76
2023/10/13 11:18:20;;;;;;;13.48;6.35;;;;;;;17.32;100.00;100252.13;6030097;23;20074;-75
2023/10/13 11:20:53;;;;;;;10.57;5.93;;;;;;;17.37;100.00;100236.50;5982194;23;20026;-75
2023/10/13 11:23:25;;;;;;;9.48;5.72;;;;;;;17.44;100.00;100233.28;6005664;23;20332;-75
2023/10/13 11:26:01;;;;;;;10.20;6.55;;;;;;;17.48;100.00;100207.13;6005965;23;20114;-78
2023/10/13 11:28:27;;;;;;;13.25;6.15;;;;;;;17.53;100.00;100193.38;6004577;23;20015;-76
2023/10/13 11:30:58;;;;;;;10.05;5.95;;;;;;;17.60;100.00;100188.25;5979735;23;20023;-75
2023/10/13 11:33:29;;;;;;;8.27;5.78;;;;;;;17.70;100.00;100179.75;6028612;23;20070;-76
2023/10/13 11:35:55;;;;;;;8.68;5.88;;;;;;;17.79;100.00;100176.19;6012382;23;20065;-79
2023/10/13 11:38:29;;;;;;;10.60;5.93;;;;;;;17.80;100.00;100162.31;6117103;23;20010;-79
2023/10/13 11:48:39;;;;;;;11.10;5.18;;;;;;;18.20;100.00;100150.94;6064537;23;20352;-78
2023/10/13 11:51:07;;;;;;;9.43;4.90;;;;;;;18.21;100.00;100139.75;6063283;23;20024;-77
2023/10/13 11:53:37;;;;;;;12.73;5.25;;;;;;;18.35;100.00;100135.94;6087613;23;20073;-77
2023/10/13 11:56:08;;;;;;;18.33;5.93;;;;;;;18.45;100.00;100130.09;6087752;23;20018;-76
2023/10/13 11:58:35;;;;;;;11.05;5.30;;;;;;;18.51;100.00;100118.72;6039600;23;20365;-76
2023/10/13 12:01:19;;;;;;;9.43;4.47;;;;;;;18.52;100.00;100124.91;6112602;23;20018;-76
2023/10/13 12:11:42;;;;;;;12.38;4.93;;;;;;;18.57;100.00;100111.16;6086901;23;20022;-75
2023/10/13 12:14:21;;;;;;;11.00;4.90;;;;;;;18.57;100.00;100105.72;6087121;23;20028;-78
2023/10/13 12:16:51;;;;;;;11.32;5.28;;;;;;;18.60;100.00;100094.19;6086937;23;20523;-77
2023/10/13 12:19:24;;;;;;;13.35;4.88;;;;;;;18.60;100.00;100096.91;6063705;23;20084;-75
2023/10/13 12:21:54;;;;;;;11.43;5.38;;;;;;;18.73;100.00;100095.81;6086751;23;20452;-76
2023/10/13 12:27:03;;;;;;;11.85;4.93;;;;;;;18.93;100.00;100087.88;6086359;23;20049;-76
2023/10/13 12:29:30;;;;;;;12.25;4.22;;;;;;;18.94;100.00;100097.59;6086237;23;20022;-75
2023/10/13 12:32:11;;;;;;;16.48;4.55;;;;;;;18.97;100.00;100102.34;6061917;23;20565;-77
2023/10/13 12:34:59;;;;;;;8.23;3.83;;;;;;;18.96;100.00;100079.81;6084388;23;20014;-76
2023/10/13 12:54:19;;;;;;;11.80;5.05;;;;;;;18.84;100.00;100076.38;6086211;23;20018;-77
2023/10/13 12:56:45;;;;;;;16.30;5.45;;;;;;;18.86;100.00;100052.41;6085246;23;20021;-78
2023/10/13 12:59:15;;;;;;;11.32;4.10;;;;;;;18.90;100.00;100051.38;6062663;23;20050;-78
2023/10/13 13:01:44;;;;;;;13.75;5.57;;;;;;;18.93;100.00;100042.53;6110022;23;20038;-77
2023/10/13 13:04:31;;;;;;;11.10;5.15;;;;;;;18.95;100.00;100047.63;6038037;23;20161;-76
2023/10/13 13:06:57;;;;;;;11.82;5.35;;;;;;;18.96;100.00;100041.84;6084512;23;20014;-79
2023/10/13 13:09:26;;;;;;;10.95;5.45;;;;;;;19.01;100.00;100033.47;6086530;23;20028;-75
2023/10/13 13:11:57;;;;;;;12.50;5.15;;;;;;;19.11;100.00;100026.00;6061345;23;20425;-77
2023/10/13 13:14:28;;;;;;;12.32;4.72;;;;;;;19.14;100.00;100042.38;6086454;23;20074;-78
2023/10/13 13:16:56;;;;;;;;;;;;;;;19.11;100.00;100018.66;6110316;23;20046;-76
2023/10/13 13:19:25;;;;;;;17.35;5.20;;;;;;;19.19;100.00;100017.72;6110683;23;20114;-76
2023/10/13 13:21:51;;;;;;;14.50;5.28;;;;;;;19.27;100.00;100002.41;6061654;23;20022;-76
2023/10/13 13:24:17;;;;;;;13.25;4.07;;;;;;;19.51;100.00;100013.19;6085820;23;20098;-77
2023/10/13 13:26:42;;;;;;;13.90;5.50;;;;;;;19.66;100.00;100006.22;6084907;23;20070;-77
2023/10/13 13:29:11;;;;;;;12.77;5.03;;;;;;;19.82;100.00;100009.72;6109910;23;20018;-77
2023/10/13 13:31:44;;;;;;;14.98;4.38;;;;;;;19.88;100.00;100002.13;6037989;23;20014;-77
2023/10/13 13:34:12;;;;;;;10.27;4.93;;;;;;;19.85;100.00;99979.16;6085218;23;20052;-76
2023/10/13 13:36:43;;;;;;;10.18;4.25;;;;;;;19.93;100.00;99985.56;6060651;23;20018;-76
2023/10/13 13:39:10;;;;;;;14.00;5.10;;;;;;;19.98;100.00;99970.91;6110009;23;20017;-76
2023/10/13 13:41:38;;;;;;;12.65;4.70;;;;;;;19.95;100.00;99974.34;6085497;23;20020;-76
2023/10/13 13:44:13;;;;;;;8.57;4.43;;;;;;;19.92;100.00;99972.34;6037784;23;20077;-76
2023/10/13 13:46:42;;;;;;;10.35;4.85;;;;;;;19.82;100.00;99970.91;6087398;23;20046;-79
2023/10/13 13:49:17;;;;;;;13.63;5.20;;;;;;;19.81;100.00;99961.97;6086063;23;20089;-74
2023/10/13 13:51:51;;;;;;;17.50;5.57;;;;;;;19.74;100.00;99940.06;6086972;23;20018;-78
2023/10/13 13:54:18;;;;;;;11.65;4.40;;;;;;;19.72;100.00;99934.19;6086066;23;20416;-76
2023/10/13 13:56:44;;;;;;;12.98;5.15;;;;;;;19.67;100.00;99945.31;6084873;23;20068;-75
2023/10/13 13:59:14;;;;;;;14.77;5.18;;;;;;;19.60;100.00;99948.66;6085642;23;20848;-75
2023/10/13 14:01:40;;;;;;;14.65;5.03;;;;;;;19.61;100.00;99939.34;6085089;23;20337;-75
2023/10/13 14:04:06;;;;;;;14.30;5.68;;;;;;;19.56;100.00;99946.94;6085189;23;20456;-74
2023/10/13 14:06:34;;;;;;;11.35;4.93;;;;;;;19.53;100.00;99950.38;6060412;23;20022;-75
2023/10/13 14:09:04;;;;;;;11.52;4.97;;;;;;;19.44;100.00;99953.25;6060384;23;20014;-75
2023/10/13 14:12:25;;;;;;;11.23;5.22;;;;;;;19.45;100.00;99948.59;6060629;23;20074;-76
2023/10/13 14:17:02;;;;;;;12.55;5.45;;;;;;;19.30;100.00;99941.97;6084743;23;20022;-79
2023/10/13 14:19:28;;;;;;;13.32;5.47;;;;;;;19.18;100.00;99923.84;6086112;23;20022;-77
2023/10/13 14:21:57;;;;;;;12.93;5.43;;;;;;;19.15;100.00;99927.25;6060001;23;20021;-77
2023/10/13 14:24:33;;;;;;;14.32;4.80;;;;;;;19.09;100.00;99920.47;6109714;23;20029;-77
2023/10/13 14:30:00;;;;;;;10.52;5.32;;;;;;;19.06;100.00;99937.47;6037811;23;20540;-77
2023/10/13 14:32:27;;;;;;;15.23;5.15;;;;;;;19.02;100.00;99934.66;6084509;23;20042;-78
2023/10/13 14:34:56;;;;;;;10.60;5.40;;;;;;;19.02;100.00;99923.78;6085648;23;20014;-77
2023/10/13 14:37:32;;;;;;;16.58;5.70;;;;;;;19.04;100.00;99923.47;6036925;23;20026;-77
2023/10/13 14:39:59;;;;;;;12.55;6.22;;;;;;;19.05;100.00;99920.41;6036775;23;20109;-75
2023/10/13 14:42:26;;;;;;;10.32;5.28;;;;;;;19.06;100.00;99921.97;6061865;23;20070;-75
2023/10/13 14:44:55;;;;;;;9.70;6.00;;;;;;;19.08;100.00;99906.13;6061054;23;20026;-76
2023/10/13 14:47:25;;;;;;;12.38;6.10;;;;;;;19.15;100.00;99910.19;6086056;23;20618;-77
2023/10/13 14:49:54;;;;;;;13.32;5.75;;;;;;;19.22;100.00;99913.88;6084579;23;20093;-74
2023/10/13 14:52:24;;;;;;;11.60;5.75;;;;;;;19.26;100.00;99920.19;6085561;23;20073;-77
2023/10/13 14:54:55;;;;;;;10.95;5.32;;;;;;;19.27;100.00;99905.47;6084582;23;20046;-74